Temp: 2.2°C   Baro: 1026.9mb
  Wind: 0.9mph   Dir: ESE (123°)
  Rain: 0.0mm (0.0mm/hr)
  Solar: 83W/m2  Hum: 97%

Historic data

Bath Spa Weather Station Historical Data
Daily Summary for October 01, 2022 Units:  Metric    English   Both
Daily Weekly Monthly Yearly Custom
  High: Low: Average:
Temperature: 17.8 °C 12.2 °C 14.6 °C
Dew Point: 13.1 °C 10.4 °C 11.8 °C
Humidity: 91% 71% 84%
Wind Speed: 24.1km/h 0.6km/h 9.5km/h
Wind Gust: 37km/h - -
Wind- - West
Pressure: 1015.1 hPa 1000.6 hPa -
Precipitation: 1.78 mm    
Historical Graphs
 
 
Tabular Data for October 01, 2022
Time Temperature Dew Point Pressure Wind Wind Speed Wind Gust Humidity Rainfall Rate (Hourly) solar
00:09 13.9 °C 12.6 °C 1000.6 hPa West 8.4 km/h 16.1 km/h 91% 0 mm 0 W/m2
00:14 14 °C 12.6 °C 1000.6 hPa West 8 km/h 19.3 km/h 91% 0 mm 0 W/m2
00:19 13.9 °C 12.6 °C 1000.9 hPa WNW 7.7 km/h 16.1 km/h 91% 0 mm 0 W/m2
00:24 13.9 °C 12.5 °C 1000.9 hPa WNW 7.1 km/h 14.5 km/h 91% 0 mm 0 W/m2
00:29 13.8 °C 12.4 °C 1000.9 hPa West 6.4 km/h 11.3 km/h 91% 0 mm 0 W/m2
00:34 13.8 °C 12.4 °C 1000.9 hPa West 6.8 km/h 12.9 km/h 91% 0 mm 0 W/m2
00:39 13.8 °C 12.4 °C 1000.9 hPa West 9.2 km/h 12.9 km/h 91% 0 mm 0 W/m2
00:44 13.7 °C 12.3 °C 1000.9 hPa West 6.4 km/h 12.9 km/h 91% 0 mm 0 W/m2
00:49 13.7 °C 12.3 °C 1001.2 hPa West 6 km/h 11.3 km/h 91% 0 mm 0 W/m2
00:54 13.7 °C 12.3 °C 1001.2 hPa West 8.4 km/h 17.7 km/h 91% 0 mm 0 W/m2
00:59 13.8 °C 12.3 °C 1001.2 hPa West 9 km/h 14.5 km/h 91% 0 mm 0 W/m2
01:04 13.8 °C 12.4 °C 1001.2 hPa West 7.1 km/h 12.9 km/h 91% 0 mm 0 W/m2
01:09 13.8 °C 12.4 °C 1000.9 hPa West 6.6 km/h 12.9 km/h 91% 0 mm 0 W/m2
01:14 13.8 °C 12.4 °C 1001.2 hPa West 7.1 km/h 17.7 km/h 91% 0 mm 0 W/m2
01:19 13.9 °C 12.5 °C 1001.2 hPa West 8.5 km/h 14.5 km/h 91% 0 mm 0 W/m2
01:24 13.9 °C 12.5 °C 1001.2 hPa West 9.8 km/h 20.9 km/h 91% 0 mm 0 W/m2
01:29 13.9 °C 12.5 °C 1001.2 hPa West 12.2 km/h 20.9 km/h 91% 0 mm 0 W/m2
01:34 13.9 °C 12.3 °C 1001.6 hPa West 8.4 km/h 24.1 km/h 90% 0 mm 0 W/m2
01:39 13.8 °C 12.1 °C 1001.6 hPa WNW 15.8 km/h 29 km/h 89.4% 0 mm 0 W/m2
01:44 13.8 °C 11.9 °C 1001.6 hPa West 12.9 km/h 29 km/h 88.6% 0 mm 0 W/m2
01:49 13.7 °C 11.7 °C 1001.6 hPa West 10.3 km/h 17.7 km/h 87.8% 0 mm 0 W/m2
01:54 13.7 °C 11.6 °C 1001.6 hPa West 8.5 km/h 16.1 km/h 87% 0 mm 0 W/m2
01:57 13.6 °C 11.5 °C 1001.6 hPa WNW 8 km/h 14.5 km/h 87% 0 mm 0 W/m2
02:04 13.6 °C 11.5 °C 1001.9 hPa West 7.7 km/h 20.9 km/h 87% 0 mm 0 W/m2
02:14 13.6 °C 11.5 °C 1001.9 hPa West 9.7 km/h 16.1 km/h 87% 0 mm 0 W/m2
02:19 13.5 °C 11.4 °C 1001.9 hPa West 7.7 km/h 16.1 km/h 87% 0 mm 0 W/m2
02:24 13.4 °C 11.3 °C 1001.9 hPa West 11.9 km/h 16.1 km/h 87% 0 mm 0 W/m2
02:29 13.6 °C 11.5 °C 1001.9 hPa West 9.7 km/h 20.9 km/h 87% 0 mm 0 W/m2
02:34 13.7 °C 11.6 °C 1001.6 hPa West 12.2 km/h 20.9 km/h 87% 0 mm 0 W/m2
02:39 13.7 °C 11.6 °C 1001.9 hPa West 8.2 km/h 17.7 km/h 87% 0 mm 0 W/m2
02:44 13.6 °C 11.5 °C 1001.9 hPa West 9.3 km/h 17.7 km/h 87% 0 mm 0 W/m2
02:49 13.5 °C 11.4 °C 1001.9 hPa West 9.3 km/h 16.1 km/h 87% 0 mm 0 W/m2
02:54 13.5 °C 11.6 °C 1001.9 hPa West 11.3 km/h 16.1 km/h 87.8% 0 mm 0 W/m2
02:59 13.5 °C 11.6 °C 1001.9 hPa West 10.3 km/h 14.5 km/h 88% 0 mm 0 W/m2
03:04 13.5 °C 11.6 °C 1001.9 hPa West 10.3 km/h 17.7 km/h 88% 0 mm 0 W/m2
03:09 13.5 °C 11.6 °C 1001.9 hPa West 10.6 km/h 17.7 km/h 88% 0 mm 0 W/m2
03:14 13.4 °C 11.6 °C 1001.9 hPa WSW 10.9 km/h 16.1 km/h 88% 0 mm 0 W/m2
03:19 13.4 °C 11.5 °C 1001.9 hPa West 8.2 km/h 17.7 km/h 88% 0 mm 0 W/m2
03:24 13.6 °C 11.6 °C 1001.9 hPa West 9 km/h 22.5 km/h 88% 0 mm 0 W/m2
03:29 13.7 °C 11.7 °C 1002.3 hPa West 11.6 km/h 19.3 km/h 88% 0 mm 0 W/m2
03:34 13.7 °C 11.7 °C 1002.3 hPa West 13.8 km/h 24.1 km/h 88% 0 mm 0 W/m2
03:39 13.7 °C 11.7 °C 1002.3 hPa West 8 km/h 24.1 km/h 88% 0 mm 0 W/m2
03:44 13.7 °C 11.7 °C 1002.6 hPa West 10 km/h 19.3 km/h 88% 0 mm 0 W/m2
03:49 13.6 °C 11.6 °C 1002.6 hPa West 8.7 km/h 19.3 km/h 88% 0 mm 0 W/m2
03:54 13.6 °C 11.6 °C 1002.6 hPa WSW 10.9 km/h 19.3 km/h 88% 0 mm 0 W/m2
03:59 13.6 °C 11.6 °C 1002.6 hPa West 10.3 km/h 24.1 km/h 88% 0 mm 0 W/m2
04:04 13.6 °C 11.6 °C 1002.6 hPa West 10 km/h 20.9 km/h 87.8% 0 mm 0 W/m2
04:09 13.6 °C 11.5 °C 1002.6 hPa West 9.3 km/h 22.5 km/h 87.2% 0 mm 0 W/m2
04:14 13.6 °C 11.4 °C 1002.6 hPa WNW 7.2 km/h 16.1 km/h 87% 0 mm 0 W/m2
04:19 13.4 °C 11.3 °C 1002.9 hPa West 8 km/h 16.1 km/h 87% 0 mm 0 W/m2
04:24 13.3 °C 11.3 °C 1002.6 hPa West 8.4 km/h 14.5 km/h 87.6% 0 mm 0 W/m2
04:29 13.2 °C 11.2 °C 1002.9 hPa West 8 km/h 17.7 km/h 87.4% 0 mm 0 W/m2
04:34 13.2 °C 11.2 °C 1002.9 hPa West 6.6 km/h 16.1 km/h 87.8% 0 mm 0 W/m2
04:39 13.2 °C 11.3 °C 1002.9 hPa West 5.3 km/h 14.5 km/h 88% 0 mm 0 W/m2
04:44 13.1 °C 11.2 °C 1002.9 hPa West 8.2 km/h 14.5 km/h 88% 0 mm 0 W/m2
04:49 13.1 °C 11.2 °C 1002.9 hPa WNW 4.7 km/h 14.5 km/h 88% 0 mm 0 W/m2
04:54 12.9 °C 11 °C 1002.9 hPa WNW 8.7 km/h 14.5 km/h 88% 0 mm 0 W/m2
04:59 12.9 °C 11 °C 1002.9 hPa NW 6.6 km/h 11.3 km/h 88% 0 mm 0 W/m2
05:04 12.8 °C 10.9 °C 1002.9 hPa WNW 6.1 km/h 11.3 km/h 88% 0 mm 0 W/m2
05:09 12.8 °C 10.9 °C 1003.3 hPa NW 5.1 km/h 9.7 km/h 88.6% 0 mm 0 W/m2
05:14 12.8 °C 11 °C 1003.3 hPa NW 3.2 km/h 11.3 km/h 89% 0 mm 0 W/m2
05:19 12.7 °C 10.9 °C 1003.3 hPa WNW 4 km/h 6.4 km/h 89% 0 mm 0 W/m2
05:24 12.7 °C 10.9 °C 1003.6 hPa WNW 3.2 km/h 8 km/h 89% 0 mm 0 W/m2
05:29 12.8 °C 11 °C 1003.6 hPa NW 3.9 km/h 12.9 km/h 89% 0 mm 0 W/m2
05:34 12.8 °C 11 °C 1003.6 hPa WNW 3.5 km/h 8 km/h 89% 0 mm 0 W/m2
05:39 12.8 °C 11 °C 1003.6 hPa NW 4.5 km/h 8 km/h 89% 0 mm 0 W/m2
05:44 12.7 °C 10.9 °C 1003.6 hPa WNW 3.1 km/h 9.7 km/h 89% 0 mm 0 W/m2
05:49 12.7 °C 10.9 °C 1003.9 hPa WNW 3.9 km/h 6.4 km/h 89% 0 mm 0 W/m2
05:54 12.7 °C 10.8 °C 1003.9 hPa WNW 4.2 km/h 6.4 km/h 89% 0 mm 0 W/m2
05:59 12.6 °C 10.8 °C 1003.9 hPa West 4.8 km/h 14.5 km/h 89% 0 mm 0 W/m2
06:04 12.7 °C 10.9 °C 1003.9 hPa West 5.1 km/h 11.3 km/h 89% 0 mm 0 W/m2
06:09 12.7 °C 10.8 °C 1003.9 hPa WNW 4.8 km/h 9.7 km/h 89% 0 mm 0 W/m2
06:14 12.7 °C 10.8 °C 1003.9 hPa NW 5 km/h 9.7 km/h 89% 0 mm 0 W/m2
06:19 12.6 °C 10.8 °C 1004.3 hPa West 4 km/h 8 km/h 89% 0 mm 0 W/m2
06:24 12.6 °C 10.8 °C 1004.3 hPa West 1.6 km/h 6.4 km/h 89% 0 mm 0 W/m2
06:29 12.6 °C 10.8 °C 1004.3 hPa West 5.3 km/h 9.7 km/h 89% 0 mm 0 W/m2
06:34 12.6 °C 10.8 °C 1004.3 hPa West 4.5 km/h 11.3 km/h 89% 0 mm 0 W/m2
06:39 12.6 °C 10.8 °C 1004.3 hPa WNW 4 km/h 11.3 km/h 89% 0 mm 0 W/m2
06:44 12.6 °C 10.8 °C 1004.6 hPa WSW 6 km/h 14.5 km/h 89% 0 mm 0 W/m2
06:49 12.7 °C 10.9 °C 1004.6 hPa West 7.7 km/h 19.3 km/h 89% 0 mm 0 W/m2
06:54 12.7 °C 10.9 °C 1004.6 hPa WNW 6 km/h 19.3 km/h 89% 0 mm 0 W/m2
06:59 12.7 °C 10.8 °C 1004.6 hPa West 4.3 km/h 9.7 km/h 89% 0 mm 0 W/m2
07:04 12.6 °C 10.8 °C 1005 hPa WNW 3.4 km/h 9.7 km/h 88.8% 0 mm 0 W/m2
07:09 12.6 °C 10.7 °C 1005 hPa WNW 4.7 km/h 9.7 km/h 88% 0 mm 0 W/m2
07:14 12.5 °C 10.6 °C 1005 hPa West 3.7 km/h 9.7 km/h 88.2% 0 mm 5 W/m2
07:19 12.4 °C 10.6 °C 1005 hPa WNW 4.5 km/h 9.7 km/h 88.4% 0 mm 7 W/m2
07:24 12.4 °C 10.6 °C 1005.3 hPa WNW 5 km/h 12.9 km/h 89% 0 mm 9 W/m2
07:29 12.4 °C 10.6 °C 1005.3 hPa West 4.2 km/h 8 km/h 89% 0 mm 11 W/m2
07:34 12.4 °C 10.6 °C 1005.3 hPa West 2.6 km/h 6.4 km/h 89% 0 mm 12 W/m2
07:39 12.3 °C 10.5 °C 1005.3 hPa West 3.2 km/h 6.4 km/h 89% 0 mm 18 W/m2
07:43 12.3 °C 10.5 °C 1005.3 hPa West 2.3 km/h 8 km/h 89% 0 mm 18 W/m2
07:49 12.3 °C 10.5 °C 1005.6 hPa West 0.6 km/h 3.2 km/h 89% 0 mm 19 W/m2
07:54 12.3 °C 10.5 °C 1005.6 hPa West 1.6 km/h 6.4 km/h 89% 0 mm 30 W/m2
07:59 12.3 °C 10.4 °C 1005.6 hPa West 3.2 km/h 6.4 km/h 89% 0 mm 46 W/m2
08:04 12.2 °C 10.4 °C 1005.6 hPa WNW 4.2 km/h 8 km/h 89% 0 mm 60 W/m2
08:09 12.3 °C 10.5 °C 1006 hPa WNW 3.2 km/h 6.4 km/h 89% 0 mm 62 W/m2
08:14 12.4 °C 10.6 °C 1006 hPa WNW 1.9 km/h 4.8 km/h 89% 0 mm 65 W/m2
08:19 12.4 °C 10.6 °C 1006 hPa WNW 2.6 km/h 4.8 km/h 89% 0 mm 69 W/m2
08:24 12.5 °C 10.7 °C 1006 hPa WNW 4.2 km/h 6.4 km/h 89% 0 mm 79 W/m2
08:29 12.6 °C 10.8 °C 1006 hPa West 2.7 km/h 8 km/h 89% 0 mm 83 W/m2
08:34 12.8 °C 10.9 °C 1006.3 hPa WSW 4.7 km/h 9.7 km/h 89% 0 mm 86 W/m2
08:39 12.8 °C 11.1 °C 1006.3 hPa West 5.3 km/h 12.9 km/h 89% 0 mm 84 W/m2
08:44 13.1 °C 11.3 °C 1006.3 hPa West 9.7 km/h 16.1 km/h 89% 0 mm 97 W/m2
08:49 13.2 °C 11.3 °C 1006.3 hPa West 7.7 km/h 17.7 km/h 89% 0 mm 109 W/m2
08:54 13.3 °C 11.5 °C 1006.7 hPa West 9.2 km/h 16.1 km/h 88.8% 0 mm 121 W/m2
08:59 13.4 °C 11.6 °C 1006.7 hPa West 10.5 km/h 20.9 km/h 88% 0 mm 128 W/m2
09:04 13.7 °C 11.6 °C 1006.7 hPa West 10.3 km/h 20.9 km/h 87.4% 0 mm 130 W/m2
09:09 13.7 °C 11.6 °C 1006.7 hPa WNW 8.4 km/h 16.1 km/h 87% 0 mm 176 W/m2
09:14 13.8 °C 11.6 °C 1006.7 hPa West 8.9 km/h 17.7 km/h 86.2% 0 mm 229 W/m2
09:19 14.1 °C 11.8 °C 1006.7 hPa West 13.8 km/h 25.7 km/h 85.8% 0 mm 230 W/m2
09:24 14.3 °C 11.8 °C 1007 hPa WNW 14.8 km/h 22.5 km/h 84.6% 0 mm 236 W/m2
09:29 14.6 °C 11.9 °C 1007 hPa WNW 7.6 km/h 17.7 km/h 84% 0 mm 255 W/m2
09:34 14.8 °C 11.9 °C 1007 hPa West 11.1 km/h 19.3 km/h 83.2% 0 mm 295 W/m2
09:39 14.8 °C 11.8 °C 1007 hPa WSW 15.3 km/h 25.7 km/h 82% 0 mm 227 W/m2
09:44 14.8 °C 11.6 °C 1007 hPa West 13.2 km/h 24.1 km/h 81.2% 0 mm 174 W/m2
09:49 14.7 °C 11.6 °C 1007.3 hPa West 9.5 km/h 22.5 km/h 81.2% 0 mm 218 W/m2
09:54 14.7 °C 11.7 °C 1007.3 hPa West 15 km/h 29 km/h 81.8% 0 mm 302 W/m2
09:59 14.8 °C 11.8 °C 1007.3 hPa WSW 10.9 km/h 30.6 km/h 82% 0 mm 294 W/m2
10:04 14.8 °C 11.8 °C 1007.7 hPa West 15.4 km/h 29 km/h 81.6% 0 mm 153 W/m2
10:09 14.7 °C 11.7 °C 1007.7 hPa West 14.5 km/h 29 km/h 82% 0 mm 135 W/m2
10:14 14.6 °C 11.6 °C 1007.7 hPa West 10.6 km/h 24.1 km/h 82% 0 mm 181 W/m2
10:19 14.5 °C 11.6 °C 1007.7 hPa West 8.2 km/h 24.1 km/h 82.8% 0 mm 206 W/m2
10:24 14.6 °C 11.8 °C 1007.7 hPa West 6.6 km/h 12.9 km/h 83.8% 0 mm 220 W/m2
10:29 14.6 °C 11.9 °C 1007.7 hPa WNW 8.4 km/h 20.9 km/h 84% 0 mm 220 W/m2
10:34 14.6 °C 11.9 °C 1007.7 hPa West 11.3 km/h 20.9 km/h 84.4% 0 mm 220 W/m2
10:39 14.6 °C 12.1 °C 1008 hPa West 8.7 km/h 16.1 km/h 85% 0 mm 225 W/m2
10:44 14.7 °C 12.2 °C 1008 hPa WSW 10 km/h 20.9 km/h 85% 0 mm 234 W/m2
10:49 14.8 °C 12.3 °C 1008 hPa West 10.6 km/h 24.1 km/h 85% 0 mm 243 W/m2
10:54 14.8 °C 12.3 °C 1008 hPa West 10.8 km/h 19.3 km/h 85% 0 mm 243 W/m2
10:59 14.9 °C 12.4 °C 1008 hPa West 13.2 km/h 24.1 km/h 85% 0 mm 251 W/m2
11:04 14.9 °C 12.4 °C 1008.4 hPa West 15.1 km/h 29 km/h 85% 0 mm 264 W/m2
11:09 15.1 °C 12.6 °C 1008.4 hPa West 11.4 km/h 27.4 km/h 85% 0 mm 248 W/m2
11:14 15.2 °C 12.7 °C 1008.4 hPa West 11.6 km/h 25.7 km/h 85% 0 mm 322 W/m2
11:19 15.3 °C 12.8 °C 1008.4 hPa WNW 9.7 km/h 20.9 km/h 85% 0 mm 411 W/m2
11:24 15.6 °C 12.8 °C 1008.4 hPa WSW 11.3 km/h 27.4 km/h 84% 0 mm 666 W/m2
11:29 15.8 °C 13 °C 1008.4 hPa West 17.2 km/h 25.7 km/h 83.2% 0 mm 666 W/m2
11:34 16.2 °C 13.1 °C 1008.7 hPa WSW 13.7 km/h 20.9 km/h 82.2% 0 mm 434 W/m2
11:38 16.2 °C 12.9 °C 1008.4 hPa West 10.1 km/h 25.7 km/h 81% 0 mm 429 W/m2
11:44 16.3 °C 12.8 °C 1008.7 hPa West 12.1 km/h 24.1 km/h 80.2% 0 mm 352 W/m2
11:49 16.4 °C 12.8 °C 1008.7 hPa West 11.3 km/h 24.1 km/h 79.4% 0 mm 513 W/m2
11:54 16.5 °C 12.8 °C 1008.7 hPa WNW 10 km/h 22.5 km/h 79% 0 mm 513 W/m2
11:59 16.4 °C 12.7 °C 1008.7 hPa WNW 13.2 km/h 22.5 km/h 79% 0 mm 381 W/m2
12:04 16.3 °C 12.7 °C 1008.7 hPa West 16.3 km/h 25.7 km/h 79% 0 mm 406 W/m2
12:09 16.5 °C 12.7 °C 1009 hPa West 12.6 km/h 25.7 km/h 78% 0 mm 715 W/m2
12:14 16.8 °C 12.3 °C 1009 hPa West 20 km/h 30.6 km/h 75% 0 mm 705 W/m2
12:19 16.6 °C 11.8 °C 1009 hPa West 15.1 km/h 30.6 km/h 73.2% 0 mm 657 W/m2
12:24 16.8 °C 12.1 °C 1009 hPa West 12.6 km/h 27.4 km/h 74% 0 mm 652 W/m2
12:29 17.1 °C 12.2 °C 1009 hPa West 17.1 km/h 30.6 km/h 73% 0 mm 670 W/m2
12:34 17.4 °C 12.3 °C 1009 hPa WSW 16.7 km/h 30.6 km/h 72% 0 mm 715 W/m2
12:39 17.6 °C 12.5 °C 1009 hPa West 13.5 km/h 30.6 km/h 72% 0 mm 700 W/m2
12:44 17.8 °C 12.4 °C 1009 hPa WSW 17.7 km/h 29 km/h 71% 0 mm 707 W/m2
12:49 17.4 °C 12.2 °C 1009.4 hPa WSW 23.3 km/h 37 km/h 71.6% 0 mm 686 W/m2
12:54 17.1 °C 12.2 °C 1009.4 hPa WSW 18.7 km/h 29 km/h 73% 0 mm 619 W/m2
12:58 16.6 °C 11.8 °C 1009.7 hPa WSW 24.1 km/h 33.8 km/h 73.8% 0 mm 594 W/m2
13:04 16.4 °C 12.1 °C 1009.7 hPa West 11.4 km/h 27.4 km/h 75.4% 0 mm 668 W/m2
13:09 16.6 °C 12.4 °C 1009.7 hPa West 11.9 km/h 20.9 km/h 76% 0 mm 380 W/m2
13:14 16.5 °C 12.3 °C 1009.7 hPa West 15.8 km/h 33.8 km/h 76% 0 mm 571 W/m2
13:19 16.7 °C 12.4 °C 1009.7 hPa West 15.8 km/h 25.7 km/h 76% 0 mm 527 W/m2
13:24 16.6 °C 12.3 °C 1009.7 hPa West 22.5 km/h 32.2 km/h 75.8% 0 mm 434 W/m2
13:29 16.1 °C 11.9 °C 1010 hPa West 13.8 km/h 29 km/h 76.2% 0 mm 301 W/m2
13:34 16.2 °C 12.2 °C 1010 hPa West 13.2 km/h 24.1 km/h 77% 0 mm 499 W/m2
13:39 16.3 °C 12.3 °C 1010 hPa WSW 8.4 km/h 19.3 km/h 77% 0 mm 315 W/m2
13:44 16.6 °C 12.6 °C 1010 hPa WNW 8.2 km/h 24.1 km/h 77% 0 mm 248 W/m2
13:49 16.5 °C 12.5 °C 1010 hPa WNW 16.9 km/h 30.6 km/h 77% 0 mm 246 W/m2
13:54 16.2 °C 12.2 °C 1010 hPa West 21.6 km/h 32.2 km/h 77% 0 mm 204 W/m2
13:59 16.1 °C 12.1 °C 1010 hPa West 9.3 km/h 22.5 km/h 77% 0 mm 253 W/m2
14:04 16.2 °C 12.2 °C 1010 hPa West 9.3 km/h 24.1 km/h 77% 0 mm 257 W/m2
14:09 16.3 °C 12.3 °C 1010.4 hPa West 12.9 km/h 20.9 km/h 77% 0 mm 248 W/m2
14:14 16.4 °C 12.4 °C 1010.4 hPa West 12.6 km/h 22.5 km/h 77% 0 mm 160 W/m2
14:19 16.4 °C 12.4 °C 1010.4 hPa West 11.6 km/h 24.1 km/h 77% 0 mm 206 W/m2
14:24 16.4 °C 12.4 °C 1010.4 hPa West 12.6 km/h 29 km/h 77% 0 mm 188 W/m2
14:29 16.5 °C 12.4 °C 1010.4 hPa West 12.9 km/h 27.4 km/h 76.8% 0 mm 183 W/m2
14:34 16.6 °C 12.3 °C 1010.4 hPa WSW 15.8 km/h 27.4 km/h 76% 0 mm 188 W/m2
14:39 16.6 °C 12.3 °C 1010.4 hPa West 16.6 km/h 25.7 km/h 75.8% 0 mm 232 W/m2
14:44 16.8 °C 12.2 °C 1010.4 hPa West 11.4 km/h 25.7 km/h 74.8% 0 mm 262 W/m2
14:49 16.8 °C 12.1 °C 1010.7 hPa West 19 km/h 27.4 km/h 74% 0 mm 272 W/m2
14:54 16.7 °C 12 °C 1010.7 hPa WNW 17.9 km/h 37 km/h 74% 0 mm 338 W/m2
14:59 16.6 °C 12.1 °C 1010.7 hPa West 17.1 km/h 33.8 km/h 74.6% 0 mm 146 W/m2
15:04 16.4 °C 12.1 °C 1010.7 hPa West 14.2 km/h 27.4 km/h 75.2% 0 mm 100 W/m2
15:09 16.3 °C 12.2 °C 1010.7 hPa West 14.6 km/h 30.6 km/h 76.2% 0 mm 181 W/m2
15:14 16.3 °C 12.3 °C 1010.7 hPa WSW 11.9 km/h 24.1 km/h 77% 0 mm 193 W/m2
15:19 16.4 °C 12.4 °C 1010.7 hPa West 12.4 km/h 25.7 km/h 77% 0 mm 156 W/m2
15:24 16.3 °C 12.2 °C 1010.7 hPa WNW 11.7 km/h 22.5 km/h 76.2% 0 mm 287 W/m2
15:29 16.4 °C 12.2 °C 1010.7 hPa West 10.8 km/h 24.1 km/h 76% 0 mm 183 W/m2
15:34 16.7 °C 12.4 °C 1010.7 hPa West 9.3 km/h 16.1 km/h 76% 0 mm 279 W/m2
15:39 16.8 °C 12.2 °C 1010.7 hPa West 16.4 km/h 25.7 km/h 74.4% 0 mm 227 W/m2
15:44 17 °C 12.3 °C 1011.1 hPa WSW 12.6 km/h 24.1 km/h 74% 0 mm 269 W/m2
15:49 17.1 °C 12.3 °C 1011.1 hPa WSW 18.7 km/h 32.2 km/h 73.4% 0 mm 315 W/m2
15:54 17.1 °C 12.1 °C 1011.1 hPa WSW 21.2 km/h 32.2 km/h 72.4% 0 mm 325 W/m2
15:59 17.3 °C 12.2 °C 1011.4 hPa West 19 km/h 37 km/h 72% 0 mm 545 W/m2
16:04 17.1 °C 12 °C 1011.4 hPa West 17.1 km/h 30.6 km/h 72% 0 mm 244 W/m2
16:09 17.1 °C 12 °C 1011.4 hPa West 17.5 km/h 35.4 km/h 72% 0 mm 309 W/m2
16:14 16.8 °C 11.8 °C 1011.4 hPa West 15.4 km/h 35.4 km/h 72.4% 0 mm 193 W/m2
16:19 16.8 °C 12 °C 1011.4 hPa West 12.2 km/h 20.9 km/h 73.6% 0 mm 169 W/m2
16:24 16.8 °C 12 °C 1011.4 hPa West 17.5 km/h 32.2 km/h 73.8% 0 mm 165 W/m2
16:29 16.5 °C 11.7 °C 1011.4 hPa West 18.3 km/h 33.8 km/h 73.4% 0 mm 121 W/m2
16:34 16.4 °C 11.8 °C 1011.4 hPa West 13.2 km/h 29 km/h 74% 0 mm 174 W/m2
16:39 16.5 °C 11.8 °C 1011.4 hPa West 15 km/h 22.5 km/h 74.3% 0 mm 181 W/m2
16:44 16.6 °C 12.1 °C 1011.4 hPa West 15.3 km/h 25.7 km/h 74.8% 0 mm 302 W/m2
16:49 16.7 °C 12.2 °C 1011.4 hPa WSW 16.6 km/h 29 km/h 74.8% 0 mm 339 W/m2
16:54 16.8 °C 12.1 °C 1011.7 hPa West 10.3 km/h 29 km/h 74% 0 mm 269 W/m2
16:59 16.7 °C 12 °C 1011.7 hPa WSW 16.1 km/h 27.4 km/h 74% 0 mm 98 W/m2
17:04 16.5 °C 12.1 °C 1011.7 hPa West 18.2 km/h 27.4 km/h 75% 0 mm 167 W/m2
17:09 16.4 °C 12.1 °C 1011.7 hPa West 16.7 km/h 24.1 km/h 75.2% 0 mm 234 W/m2
17:14 16.6 °C 12.2 °C 1011.7 hPa West 9.2 km/h 20.9 km/h 75.4% 0 mm 227 W/m2
17:19 16.6 °C 12.1 °C 1011.7 hPa West 12.2 km/h 22.5 km/h 75% 0 mm 237 W/m2
17:24 16.3 °C 11.9 °C 1011.7 hPa West 19.6 km/h 24.1 km/h 75% 0 mm 121 W/m2
17:29 16.3 °C 12.1 °C 1011.7 hPa West 10.3 km/h 24.1 km/h 76% 0 mm 135 W/m2
17:34 16.3 °C 12.1 °C 1011.7 hPa West 10.3 km/h 22.5 km/h 76.2% 0 mm 104 W/m2
17:39 16.2 °C 12.2 °C 1011.7 hPa West 9.7 km/h 22.5 km/h 77% 0 mm 107 W/m2
17:44 16.2 °C 12.2 °C 1012.1 hPa West 12.9 km/h 27.4 km/h 77% 0 mm 84 W/m2
17:49 16.1 °C 12.1 °C 1012.1 hPa West 12.2 km/h 22.5 km/h 77% 0 mm 76 W/m2
17:54 16.1 °C 12.1 °C 1011.7 hPa West 12.2 km/h 22.5 km/h 77% 0 mm 67 W/m2
17:59 16.1 °C 12.1 °C 1012.1 hPa West 10.6 km/h 22.5 km/h 77% 0 mm 46 W/m2
18:04 16.1 °C 12.1 °C 1012.1 hPa West 15.4 km/h 25.7 km/h 77% 0 mm 47 W/m2
18:09 16 °C 12 °C 1012.4 hPa West 12.9 km/h 20.9 km/h 77% 0 mm 37 W/m2
18:14 15.9 °C 11.9 °C 1012.4 hPa West 8.7 km/h 16.1 km/h 77% 0 mm 35 W/m2
18:19 15.9 °C 11.9 °C 1012.4 hPa WSW 11.3 km/h 25.7 km/h 77% 0 mm 35 W/m2
18:24 15.8 °C 11.9 °C 1012.1 hPa West 9.7 km/h 20.9 km/h 77.6% 0 mm 33 W/m2
18:29 15.8 °C 11.9 °C 1012.4 hPa West 11.7 km/h 19.3 km/h 78% 0 mm 18 W/m2
18:34 15.7 °C 11.8 °C 1012.8 hPa WSW 12.4 km/h 16.1 km/h 77.6% 0 mm 11 W/m2
18:39 15.7 °C 11.8 °C 1012.8 hPa West 9.3 km/h 16.1 km/h 78% 0 mm 5 W/m2
18:44 15.6 °C 11.8 °C 1012.8 hPa West 9 km/h 19.3 km/h 78% 0 mm 0 W/m2
18:49 15.6 °C 11.8 °C 1012.8 hPa WSW 8 km/h 24.1 km/h 78% 0 mm 0 W/m2
18:54 15.6 °C 11.8 °C 1012.8 hPa West 8.5 km/h 16.1 km/h 78% 0 mm 0 W/m2
18:59 15.5 °C 11.7 °C 1012.8 hPa WSW 15.1 km/h 29 km/h 78% 0 mm 0 W/m2
19:04 15.4 °C 11.7 °C 1012.8 hPa West 10.9 km/h 25.7 km/h 78% 0 mm 0 W/m2
19:09 15.4 °C 11.6 °C 1012.8 hPa West 10 km/h 20.9 km/h 78% 0 mm 0 W/m2
19:14 15.3 °C 11.7 °C 1013.1 hPa West 7.6 km/h 16.1 km/h 78.8% 0 mm 0 W/m2
19:19 15.3 °C 11.7 °C 1013.1 hPa West 7.4 km/h 16.1 km/h 79% 0 mm 0 W/m2
19:24 15.2 °C 11.6 °C 1013.1 hPa WSW 11.6 km/h 17.7 km/h 79% 0 mm 0 W/m2
19:29 15.2 °C 11.7 °C 1013.1 hPa WSW 10.6 km/h 24.1 km/h 79.2% 0 mm 0 W/m2
19:34 15.1 °C 11.7 °C 1013.1 hPa West 11.3 km/h 24.1 km/h 80.2% 0 mm 0 W/m2
19:39 14.8 °C 11.7 °C 1013.1 hPa West 11.9 km/h 19.3 km/h 81.2% 0 mm 0 W/m2
19:44 14.8 °C 11.8 °C 1013.1 hPa West 6.6 km/h 19.3 km/h 82% 0 mm 0 W/m2
19:49 14.8 °C 11.8 °C 1013.4 hPa West 10.1 km/h 17.7 km/h 82% 0 mm 0 W/m2
19:54 14.8 °C 11.8 °C 1013.4 hPa West 11.9 km/h 22.5 km/h 82% 0 mm 0 W/m2
19:59 14.9 °C 11.9 °C 1013.4 hPa West 8.2 km/h 20.9 km/h 82% 0 mm 0 W/m2
20:04 14.9 °C 11.9 °C 1013.4 hPa West 9.3 km/h 19.3 km/h 82% 0 mm 0 W/m2
20:09 14.9 °C 12 °C 1013.4 hPa WNW 9.3 km/h 19.3 km/h 82.8% 0 mm 0 W/m2
20:14 14.9 °C 12 °C 1013.4 hPa West 9.2 km/h 16.1 km/h 83% 0 mm 0 W/m2
20:19 14.9 °C 12 °C 1013.4 hPa West 9.7 km/h 19.3 km/h 83% 0 mm 0 W/m2
20:24 14.9 °C 12 °C 1013.4 hPa West 7.4 km/h 14.5 km/h 83% 0 mm 0 W/m2
20:29 14.9 °C 12 °C 1013.4 hPa West 8.5 km/h 12.9 km/h 83% 0 mm 0 W/m2
20:34 14.9 °C 12 °C 1013.8 hPa West 8.9 km/h 14.5 km/h 83% 0 mm 0 W/m2
20:39 14.9 °C 12 °C 1013.8 hPa WSW 7.2 km/h 14.5 km/h 83% 0 mm 0 W/m2
20:44 14.8 °C 11.9 °C 1013.8 hPa WSW 5.8 km/h 11.3 km/h 83% 0 mm 0 W/m2
20:49 14.8 °C 11.9 °C 1013.8 hPa WSW 6.3 km/h 12.9 km/h 83% 0 mm 0 W/m2
20:54 14.7 °C 11.9 °C 1014.1 hPa WSW 3.9 km/h 11.3 km/h 83.8% 0 mm 0 W/m2
20:59 14.4 °C 11.7 °C 1014.1 hPa WSW 4.7 km/h 9.7 km/h 84% 0 mm 0 W/m2
21:04 14.4 °C 11.8 °C 1014.1 hPa SW 6.4 km/h 9.7 km/h 84.6% 0 mm 0 W/m2
21:09 14.3 °C 11.8 °C 1014.1 hPa WSW 4.5 km/h 9.7 km/h 85% 0 mm 0 W/m2
21:14 14.2 °C 11.7 °C 1014.1 hPa WSW 5.5 km/h 11.3 km/h 85% 0 mm 0 W/m2
21:19 14.2 °C 11.8 °C 1014.1 hPa West 4.5 km/h 11.3 km/h 85.8% 0 mm 0 W/m2
21:24 14.1 °C 11.8 °C 1014.1 hPa WSW 7.9 km/h 11.3 km/h 86% 0 mm 0 W/m2
21:29 14.1 °C 11.8 °C 1014.1 hPa WSW 5.1 km/h 9.7 km/h 86% 0 mm 0 W/m2
21:34 14.1 °C 11.9 °C 1014.1 hPa WSW 7.2 km/h 14.5 km/h 86.6% 0 mm 0 W/m2
21:39 14.2 °C 12.1 °C 1014.1 hPa WSW 12.6 km/h 20.9 km/h 87% 0 mm 0 W/m2
21:44 14.2 °C 12.1 °C 1014.1 hPa West 7.7 km/h 11.3 km/h 87% 0 mm 0 W/m2
21:49 14.1 °C 12 °C 1014.4 hPa West 4.7 km/h 11.3 km/h 87% 0 mm 0 W/m2
21:53 14.1 °C 12 °C 1014.4 hPa WSW 4 km/h 6.4 km/h 87% 0 mm 0 W/m2
21:59 14.1 °C 12 °C 1014.4 hPa WSW 4.2 km/h 11.3 km/h 87% 0 mm 0 W/m2
22:04 14.1 °C 12 °C 1014.4 hPa West 4.7 km/h 11.3 km/h 87% 0 mm 0 W/m2
22:09 14.1 °C 12 °C 1014.4 hPa WSW 5.1 km/h 8 km/h 87% 0 mm 0 W/m2
22:14 14.1 °C 12 °C 1014.4 hPa West 7.7 km/h 16.1 km/h 87% 0 mm 0 W/m2
22:19 14.1 °C 12 °C 1014.8 hPa West 8 km/h 14.5 km/h 87% 0 mm 0 W/m2
22:24 14.1 °C 12 °C 1014.8 hPa WSW 5.6 km/h 11.3 km/h 87% 0 mm 0 W/m2
22:29 14.1 °C 12 °C 1014.8 hPa WSW 5.1 km/h 11.3 km/h 87% 0 mm 0 W/m2
22:34 14 °C 11.9 °C 1014.8 hPa WSW 6.1 km/h 12.9 km/h 87% 0.25 mm 0 W/m2
22:39 13.9 °C 11.8 °C 1015.1 hPa WSW 7.1 km/h 14.5 km/h 87.2% 0.51 mm 0 W/m2
22:44 13.8 °C 11.8 °C 1015.1 hPa WSW 6 km/h 11.3 km/h 88% 0.51 mm 0 W/m2
22:49 13.7 °C 11.7 °C 1015.1 hPa WSW 5.1 km/h 11.3 km/h 88% 0.51 mm 0 W/m2
22:54 13.7 °C 11.7 °C 1015.1 hPa SW 6.8 km/h 12.9 km/h 88% 0.76 mm 0 W/m2
22:59 13.6 °C 11.8 °C 1015.1 hPa SW 6.8 km/h 11.3 km/h 89% 1.02 mm 0 W/m2
23:04 13.5 °C 11.7 °C 1015.1 hPa SW 5.3 km/h 11.3 km/h 89% 1.27 mm 0 W/m2
23:09 13.4 °C 11.6 °C 1015.1 hPa SW 6.3 km/h 12.9 km/h 89% 1.27 mm 0 W/m2
23:14 13.4 °C 11.7 °C 1015.1 hPa SW 3.2 km/h 8 km/h 89.6% 1.27 mm 0 W/m2
23:19 13.4 °C 11.8 °C 1015.1 hPa SW 7.2 km/h 14.5 km/h 90% 1.27 mm 0 W/m2
23:24 13.4 °C 11.8 °C 1015.1 hPa SW 4.5 km/h 14.5 km/h 90% 1.52 mm 0 W/m2
23:29 13.4 °C 11.8 °C 1015.1 hPa SW 1.9 km/h 9.7 km/h 90.2% 1.52 mm 0 W/m2
23:34 13.4 °C 11.9 °C 1015.1 hPa SW 2.7 km/h 8 km/h 90.8% 1.27 mm 0 W/m2
23:39 13.3 °C 11.9 °C 1015.1 hPa WSW 3.1 km/h 6.4 km/h 91% 1.52 mm 0 W/m2
23:44 13.3 °C 11.9 °C 1015.1 hPa WSW 3.1 km/h 4.8 km/h 91% 1.27 mm 0 W/m2
23:49 13.3 °C 11.9 °C 1015.1 hPa WSW 2.9 km/h 6.4 km/h 91% 1.27 mm 0 W/m2
23:54 13.3 °C 11.9 °C 1015.1 hPa West 2.1 km/h 6.4 km/h 91% 1.27 mm 0 W/m2
23:59 13.3 °C 11.9 °C 1015.1 hPa West 2.7 km/h 4.8 km/h 91% 0.76 mm 0 W/m2
Bath Spa Weather
Compliments of Weather Underground - 2 mb